Time;durP1;ratioP1;P1;durP2;ratioP2;P2;SDS_P1;SDS_P2;PMS_P1;PMS_P2;Temp;Humidity;BMP_temperature;BMP_pressure;BME280_temperature;BME280_humidity;BME280_pressure;Samples;Min_cycle;Max_cycle;Signal;HPM_P1;HPM_P2
2023/09/18 00:00:51;;;;;;;8.05;3.40;;;19.80;99.90;;;;;;5090839;28;20117;-88
2023/09/18 00:03:20;;;;;;;12.20;3.60;;;19.80;99.90;;;;;;5086673;28;20021;-91
2023/09/18 00:05:47;;;;;;;9.02;3.50;;;19.80;99.90;;;;;;5090446;28;20036;-86
2023/09/18 00:08:14;;;;;;;12.07;3.95;;;19.90;99.90;;;;;;5093050;28;20036;-88
2023/09/18 00:10:40;;;;;;;12.02;3.75;;;19.90;99.90;;;;;;5092623;28;20074;-87
2023/09/18 00:13:05;;;;;;;12.27;4.53;;;19.90;99.90;;;;;;5091914;28;20020;-89
2023/09/18 00:15:31;;;;;;;10.82;3.95;;;19.90;99.90;;;;;;5090699;28;20028;-89
2023/09/18 00:17:57;;;;;;;7.30;3.50;;;19.90;99.90;;;;;;5090475;28;20446;-86
2023/09/18 00:20:26;;;;;;;10.23;3.70;;;20.00;99.90;;;;;;5090804;28;20544;-87
2023/09/18 00:22:55;;;;;;;6.07;3.15;;;20.00;99.90;;;;;;5090619;28;20023;-87
2023/09/18 00:25:22;;;;;;;6.65;3.42;;;20.00;99.90;;;;;;5090558;28;20442;-88
2023/09/18 00:27:48;;;;;;;5.60;3.20;;;20.00;99.90;;;;;;5091531;28;20059;-88
2023/09/18 00:30:14;;;;;;;6.78;3.28;;;20.00;99.90;;;;;;5091060;28;20395;-87
2023/09/18 00:32:40;;;;;;;6.60;3.10;;;20.00;99.90;;;;;;5090006;28;20496;-88
2023/09/18 00:35:06;;;;;;;7.72;3.03;;;20.00;99.90;;;;;;5089402;28;20028;-89
2023/09/18 00:37:31;;;;;;;7.85;3.20;;;20.00;99.90;;;;;;5079667;28;20032;-87
2023/09/18 00:39:57;;;;;;;5.75;2.90;;;20.00;99.90;;;;;;5088144;28;20033;-89
2023/09/18 00:42:23;;;;;;;4.90;3.10;;;19.90;99.90;;;;;;5090846;28;20030;-89
2023/09/18 00:44:50;;;;;;;3.58;2.80;;;19.90;99.90;;;;;;5089404;28;20035;-87
2023/09/18 00:47:16;;;;;;;7.40;3.22;;;19.90;99.90;;;;;;5093550;28;20104;-86
2023/09/18 00:49:47;;;;;;;5.32;3.10;;;19.90;99.90;;;;;;5111001;28;20039;-86
2023/09/18 00:52:13;;;;;;;9.38;3.45;;;19.80;99.90;;;;;;5110912;28;20026;-87
2023/09/18 00:54:40;;;;;;;5.07;3.20;;;19.80;99.90;;;;;;5101256;28;20024;-86
2023/09/18 00:57:06;;;;;;;3.47;2.85;;;19.70;99.90;;;;;;5089915;28;20108;-87
2023/09/18 00:59:33;;;;;;;7.38;3.40;;;19.70;99.90;;;;;;5089960;28;20445;-88
2023/09/18 01:01:59;;;;;;;7.53;3.67;;;19.70;99.90;;;;;;5089702;28;20050;-89
2023/09/18 01:04:26;;;;;;;6.72;3.55;;;19.60;99.90;;;;;;5090891;28;20396;-86
2023/09/18 01:06:52;;;;;;;7.83;3.10;;;19.60;99.90;;;;;;5090795;28;20031;-87
2023/09/18 01:09:19;;;;;;;6.28;3.45;;;19.60;99.90;;;;;;5091087;28;20032;-86
2023/09/18 01:12:05;;;;;;;7.13;2.92;;;19.60;99.90;;;;;;5093290;28;20475;-85
2023/09/18 01:14:56;;;;;;;7.30;3.10;;;19.60;99.90;;;;;;5088970;28;20510;-86
2023/09/18 01:17:22;;;;;;;8.82;3.28;;;19.60;99.90;;;;;;5090771;28;20020;-86
2023/09/18 01:19:48;;;;;;;6.68;3.33;;;19.60;99.90;;;;;;5091067;28;20394;-86
2023/09/18 01:22:16;;;;;;;4.38;2.85;;;19.60;99.90;;;;;;5091517;28;20028;-85
2023/09/18 01:24:43;;;;;;;;;;;19.60;99.90;;;;;;5089419;28;20055;-87
2023/09/18 01:27:12;;;;;;;5.70;3.17;;;19.60;99.90;;;;;;5090212;28;20098;-86
2023/09/18 01:29:38;;;;;;;10.30;3.67;;;19.50;99.90;;;;;;5088716;28;20407;-86
2023/09/18 01:32:04;;;;;;;6.07;3.47;;;19.50;99.90;;;;;;5090339;28;20028;-87
2023/09/18 01:34:35;;;;;;;5.20;3.42;;;19.60;99.90;;;;;;5090470;28;20431;-89
2023/09/18 01:37:04;;;;;;;13.30;3.95;;;19.60;99.90;;;;;;5090456;28;20460;-87
2023/09/18 01:39:32;;;;;;;7.38;3.67;;;19.70;99.90;;;;;;5090073;28;20016;-89
2023/09/18 01:42:01;;;;;;;10.93;3.83;;;19.70;99.90;;;;;;5089439;28;20111;-88
2023/09/18 01:44:27;;;;;;;19.23;4.40;;;19.70;99.90;;;;;;5090268;28;20069;-88
2023/09/18 01:46:55;;;;;;;8.63;4.40;;;19.80;99.90;;;;;;5087939;28;20119;-87
2023/09/18 01:49:29;;;;;;;8.40;4.57;;;19.70;99.90;;;;;;5090478;28;20399;-87
2023/09/18 01:51:55;;;;;;;6.97;4.10;;;19.80;99.90;;;;;;5090078;28;20032;-90
2023/09/18 01:54:21;;;;;;;7.80;4.65;;;19.90;99.90;;;;;;5088973;28;20080;-87
2023/09/18 01:56:46;;;;;;;9.25;4.60;;;19.90;99.90;;;;;;5090975;28;20472;-88
2023/09/18 01:59:12;;;;;;;9.20;4.97;;;20.00;99.90;;;;;;5088960;28;20028;-90
2023/09/18 02:01:37;;;;;;;10.70;5.10;;;20.00;99.90;;;;;;5088652;28;20020;-90
2023/09/18 02:04:04;;;;;;;12.52;5.15;;;19.90;99.90;;;;;;5068806;28;20033;-88
2023/09/18 02:06:30;;;;;;;13.40;5.25;;;20.00;99.90;;;;;;5069839;28;20048;-87
2023/09/18 02:08:55;;;;;;;9.23;5.10;;;20.00;99.90;;;;;;5080550;28;20116;-89
2023/09/18 02:11:21;;;;;;;11.60;4.82;;;20.00;99.90;;;;;;5088543;28;20028;-85
2023/09/18 02:13:47;;;;;;;13.85;5.32;;;20.10;99.90;;;;;;5089338;28;20032;-86
2023/09/18 02:16:12;;;;;;;10.27;4.93;;;20.00;99.90;;;;;;5089723;28;20023;-89
2023/09/18 02:18:38;;;;;;;8.45;4.93;;;20.10;99.90;;;;;;5089357;28;20024;-87
2023/09/18 02:21:03;;;;;;;13.18;5.10;;;20.10;99.90;;;;;;5089155;28;20047;-87
2023/09/18 02:23:29;;;;;;;10.25;4.50;;;20.10;99.90;;;;;;5089913;28;20024;-90
2023/09/18 02:25:58;;;;;;;7.95;5.70;;;20.10;99.90;;;;;;5090044;28;20024;-88
2023/09/18 02:28:25;;;;;;;12.23;5.55;;;20.10;99.90;;;;;;5089520;28;20105;-90
2023/09/18 02:30:51;;;;;;;12.38;5.85;;;20.10;99.90;;;;;;5089029;28;20020;-88
2023/09/18 02:33:17;;;;;;;10.27;5.95;;;20.10;99.90;;;;;;5088836;28;20016;-88
2023/09/18 02:35:43;;;;;;;12.43;5.68;;;20.10;99.90;;;;;;5089671;28;20036;-87
2023/09/18 02:38:09;;;;;;;10.38;5.93;;;20.10;99.90;;;;;;5088532;28;20031;-87
2023/09/18 02:40:34;;;;;;;10.52;5.70;;;20.10;99.90;;;;;;5089597;28;20024;-87
2023/09/18 02:43:02;;;;;;;12.68;6.03;;;20.20;99.90;;;;;;5088399;28;20020;-89
2023/09/18 02:45:27;;;;;;;14.17;6.37;;;20.20;99.90;;;;;;5089144;28;20404;-88
2023/09/18 02:47:53;;;;;;;13.15;6.65;;;20.20;99.90;;;;;;5089249;28;20143;-88
2023/09/18 02:50:19;;;;;;;10.00;5.30;;;20.30;99.90;;;;;;5090480;28;20383;-88
2023/09/18 02:52:44;;;;;;;9.93;5.30;;;20.30;99.90;;;;;;5090263;28;20480;-85
2023/09/18 02:55:10;;;;;;;10.50;5.88;;;20.30;99.90;;;;;;5072223;28;20028;-89
2023/09/18 02:57:36;;;;;;;10.02;5.75;;;20.40;99.90;;;;;;5079114;28;20024;-86
2023/09/18 03:00:03;;;;;;;10.52;5.72;;;20.40;99.90;;;;;;5113444;28;20022;-87
2023/09/18 03:02:29;;;;;;;10.77;6.03;;;20.30;99.90;;;;;;5103218;28;20079;-87
2023/09/18 03:04:55;;;;;;;11.15;6.03;;;20.30;99.90;;;;;;5072917;28;20058;-85
2023/09/18 03:07:22;;;;;;;12.68;6.32;;;20.30;99.90;;;;;;5092505;28;20441;-87
2023/09/18 03:09:47;;;;;;;11.13;6.07;;;20.30;99.90;;;;;;5090251;28;20063;-86
2023/09/18 03:12:13;;;;;;;11.07;5.10;;;20.30;99.90;;;;;;5071446;28;20930;-86
2023/09/18 03:14:39;;;;;;;8.20;5.22;;;20.30;99.90;;;;;;5072936;28;20025;-87
2023/09/18 03:17:05;;;;;;;16.67;5.95;;;20.30;99.90;;;;;;5072944;28;20048;-86
2023/09/18 03:19:30;;;;;;;11.38;6.40;;;20.30;99.90;;;;;;5072553;28;20063;-86
2023/09/18 03:21:56;;;;;;;10.70;6.30;;;20.30;99.90;;;;;;5072405;28;20036;-89
2023/09/18 03:24:22;;;;;;;9.57;5.97;;;20.30;99.90;;;;;;5075029;28;20111;-88
2023/09/18 03:26:49;;;;;;;9.23;6.00;;;20.30;99.90;;;;;;5095316;28;20039;-86
2023/09/18 03:29:14;;;;;;;10.90;5.47;;;20.30;99.90;;;;;;5092461;28;20423;-89
2023/09/18 03:31:40;;;;;;;13.43;5.72;;;20.40;99.90;;;;;;5092578;28;20024;-91
2023/09/18 03:34:06;;;;;;;9.73;5.50;;;20.40;99.90;;;;;;5092218;28;20020;-87
2023/09/18 03:36:31;;;;;;;9.95;6.22;;;20.40;99.90;;;;;;5092307;28;20020;-86
2023/09/18 03:38:57;;;;;;;13.95;6.53;;;20.30;99.90;;;;;;5108538;28;20024;-88
2023/09/18 03:41:22;;;;;;;8.63;5.60;;;20.40;99.90;;;;;;5092892;28;20471;-86
2023/09/18 03:43:49;;;;;;;10.77;5.90;;;20.40;99.90;;;;;;5090863;28;20020;-87
2023/09/18 03:46:14;;;;;;;8.85;5.45;;;20.40;99.90;;;;;;5091955;28;20111;-86
2023/09/18 03:48:40;;;;;;;10.95;5.57;;;20.40;99.90;;;;;;5092010;28;20116;-86
2023/09/18 03:51:07;;;;;;;13.77;6.15;;;20.40;99.90;;;;;;5090877;28;20115;-86
2023/09/18 03:53:33;;;;;;;15.13;5.68;;;20.40;99.90;;;;;;5092124;28;20020;-86
2023/09/18 03:55:59;;;;;;;7.35;4.88;;;20.30;99.90;;;;;;5092983;28;20035;-87
2023/09/18 03:58:26;;;;;;;8.30;5.13;;;20.30;99.90;;;;;;5092828;28;20112;-86
2023/09/18 04:00:52;;;;;;;7.95;5.50;;;20.30;99.90;;;;;;5093911;28;20077;-87
2023/09/18 04:03:18;;;;;;;11.05;5.43;;;20.20;99.90;;;;;;5070317;28;20030;-87
2023/09/18 04:05:43;;;;;;;7.38;4.82;;;20.20;99.90;;;;;;5083198;28;20123;-87
2023/09/18 04:08:09;;;;;;;7.13;4.78;;;20.20;99.90;;;;;;5092018;28;20032;-91
2023/09/18 04:10:35;;;;;;;8.93;4.43;;;20.20;99.90;;;;;;5091930;28;20028;-85
2023/09/18 04:13:00;;;;;;;6.50;4.43;;;20.20;99.90;;;;;;5090631;28;20030;-86
2023/09/18 04:15:27;;;;;;;7.43;4.40;;;20.20;99.90;;;;;;5091010;28;20039;-88
2023/09/18 04:17:53;;;;;;;9.00;4.22;;;20.00;99.90;;;;;;5091242;28;20016;-87
2023/09/18 04:20:19;;;;;;;6.75;4.25;;;20.00;99.90;;;;;;5091414;28;20400;-86
2023/09/18 04:22:49;;;;;;;7.97;4.30;;;20.00;99.90;;;;;;5090094;28;20035;-85
2023/09/18 04:25:15;;;;;;;6.00;4.25;;;20.00;99.90;;;;;;5091515;28;20012;-85
2023/09/18 04:27:41;;;;;;;6.00;4.30;;;19.80;99.90;;;;;;5091321;28;20036;-88
2023/09/18 04:30:11;;;;;;;7.15;3.92;;;19.80;99.90;;;;;;5085297;28;20021;-87
2023/09/18 04:32:37;;;;;;;8.60;5.13;;;19.80;99.90;;;;;;5072195;28;20047;-86
2023/09/18 04:35:05;;;;;;;6.60;4.90;;;19.80;99.90;;;;;;5062028;28;20025;-88
2023/09/18 04:37:30;;;;;;;9.47;5.17;;;19.70;99.90;;;;;;5068547;28;20523;-88
2023/09/18 04:39:57;;;;;;;7.13;5.00;;;19.80;99.90;;;;;;5058226;28;20032;-85
2023/09/18 04:42:23;;;;;;;6.88;4.70;;;19.80;99.90;;;;;;5060646;28;20107;-86
2023/09/18 04:44:49;;;;;;;7.00;4.88;;;19.80;99.90;;;;;;5067528;28;20092;-87
2023/09/18 04:47:15;;;;;;;6.45;4.50;;;19.80;99.90;;;;;;5057626;28;20084;-85
2023/09/18 04:49:40;;;;;;;7.55;5.03;;;19.80;99.90;;;;;;5060632;28;20028;-85
2023/09/18 04:52:06;;;;;;;10.02;5.18;;;19.90;99.90;;;;;;5071362;28;20032;-86
2023/09/18 04:54:32;;;;;;;8.48;5.20;;;19.90;99.90;;;;;;5072834;28;20035;-86
2023/09/18 04:56:57;;;;;;;8.00;5.10;;;19.90;99.90;;;;;;5091324;28;20035;-87
2023/09/18 04:59:23;;;;;;;8.27;5.20;;;19.90;99.90;;;;;;5082550;28;20429;-88
2023/09/18 05:01:48;;;;;;;8.25;4.75;;;19.90;99.90;;;;;;5090511;28;20055;-85
2023/09/18 05:04:14;;;;;;;8.60;4.88;;;19.90;99.90;;;;;;5086121;28;20030;-86
2023/09/18 05:06:41;;;;;;;5.47;4.85;;;19.90;99.90;;;;;;5093747;28;20475;-84
2023/09/18 05:09:07;;;;;;;6.38;4.53;;;19.90;99.90;;;;;;5089409;28;20024;-85
2023/09/18 05:11:34;;;;;;;5.28;4.35;;;19.80;99.90;;;;;;5090171;28;20031;-86
2023/09/18 05:14:00;;;;;;;5.57;4.07;;;19.70;99.90;;;;;;5076007;28;20115;-90
2023/09/18 05:16:25;;;;;;;7.20;4.25;;;19.70;99.90;;;;;;5080846;28;20103;-86
2023/09/18 05:18:51;;;;;;;7.18;4.68;;;19.60;99.90;;;;;;5067115;28;20480;-84
2023/09/18 05:21:22;;;;;;;8.68;3.70;;;19.50;99.90;;;;;;5059803;28;20048;-85
2023/09/18 05:23:48;;;;;;;7.68;4.47;;;19.60;99.90;;;;;;5060264;28;20039;-85
2023/09/18 05:26:13;;;;;;;7.30;4.28;;;19.40;99.90;;;;;;5060373;28;20051;-85
2023/09/18 05:28:39;;;;;;;8.15;4.28;;;19.40;99.90;;;;;;5058671;28;22474;-87
2023/09/18 05:31:05;;;;;;;6.90;4.35;;;19.50;99.90;;;;;;5057147;28;20032;-85
2023/09/18 05:33:31;;;;;;;6.97;4.18;;;19.50;99.90;;;;;;5060303;28;20119;-85
2023/09/18 05:35:57;;;;;;;6.22;4.55;;;19.40;99.90;;;;;;5060462;28;20027;-85
2023/09/18 05:38:23;;;;;;;7.50;4.38;;;19.50;99.90;;;;;;5069419;28;20033;-85
2023/09/18 05:40:49;;;;;;;6.70;4.30;;;19.40;99.90;;;;;;5064550;28;20027;-87
2023/09/18 05:43:14;;;;;;;5.90;4.30;;;19.50;99.90;;;;;;5063322;28;20035;-85
2023/09/18 05:45:40;;;;;;;5.25;4.30;;;19.50;99.90;;;;;;5067382;28;20024;-86
2023/09/18 05:48:06;;;;;;;5.90;4.35;;;19.50;99.90;;;;;;5064210;28;20051;-87
2023/09/18 05:50:37;;;;;;;6.43;4.80;;;19.50;99.90;;;;;;5067316;28;20024;-88
2023/09/18 05:53:03;;;;;;;6.32;4.45;;;19.50;99.90;;;;;;5061939;28;20216;-85
2023/09/18 05:55:30;;;;;;;6.30;4.70;;;19.50;99.90;;;;;;5062088;28;20028;-89
2023/09/18 05:57:57;;;;;;;7.20;4.75;;;19.60;99.90;;;;;;5062781;28;20465;-90
2023/09/18 06:00:23;;;;;;;4.78;4.18;;;19.60;99.90;;;;;;5059249;28;20117;-88
2023/09/18 06:02:51;;;;;;;8.05;4.88;;;19.60;99.90;;;;;;5054719;28;20020;-89
2023/09/18 06:05:17;;;;;;;6.97;4.95;;;19.60;99.90;;;;;;5064421;28;20020;-92
2023/09/18 06:07:44;;;;;;;8.40;5.15;;;19.60;99.90;;;;;;5057912;28;20028;-90
2023/09/18 06:10:09;;;;;;;9.57;4.88;;;19.70;99.90;;;;;;5058555;28;20058;-87
2023/09/18 06:12:37;;;;;;;7.35;4.78;;;19.70;99.90;;;;;;5058365;28;20127;-88
2023/09/18 06:15:04;;;;;;;9.02;5.40;;;19.70;99.90;;;;;;5059306;28;20038;-88
2023/09/18 06:17:29;;;;;;;10.40;5.50;;;19.70;99.90;;;;;;5062836;28;20082;-88
2023/09/18 06:19:55;;;;;;;7.90;4.93;;;19.70;99.90;;;;;;5069799;28;20040;-88
2023/09/18 06:22:21;;;;;;;11.05;5.43;;;19.80;99.90;;;;;;5058007;28;20432;-90
2023/09/18 06:24:46;;;;;;;8.98;5.60;;;19.80;99.90;;;;;;5060275;28;20032;-89
2023/09/18 06:27:12;;;;;;;8.52;5.63;;;19.80;99.90;;;;;;5061323;28;20092;-89
2023/09/18 06:29:39;;;;;;;12.45;5.72;;;19.90;99.90;;;;;;5066509;28;20742;-89
2023/09/18 06:32:05;;;;;;;10.95;5.50;;;19.90;99.90;;;;;;5065062;28;20028;-86
2023/09/18 06:34:31;;;;;;;10.57;5.60;;;19.90;99.90;;;;;;5066259;28;20036;-89
2023/09/18 06:36:57;;;;;;;7.43;5.60;;;19.90;99.90;;;;;;5064939;28;20034;-88
2023/09/18 06:39:23;;;;;;;9.60;5.30;;;20.00;99.90;;;;;;5063018;28;20039;-88
2023/09/18 06:41:49;;;;;;;9.93;5.72;;;19.80;99.90;;;;;;5061873;28;20115;-88
2023/09/18 06:44:15;;;;;;;7.00;4.93;;;19.80;99.90;;;;;;5061439;28;20043;-87
2023/09/18 06:46:40;;;;;;;10.65;5.47;;;20.00;99.90;;;;;;5062879;28;20274;-89
2023/09/18 06:49:06;;;;;;;7.25;4.85;;;20.10;99.90;;;;;;5066393;28;20475;-89
2023/09/18 06:51:32;;;;;;;10.05;5.00;;;20.00;99.90;;;;;;5067735;28;20027;-88
2023/09/18 06:53:58;;;;;;;7.20;4.55;;;20.10;99.90;;;;;;5061517;28;20511;-87
2023/09/18 06:56:26;;;;;;;9.25;4.97;;;20.20;99.90;;;;;;5061904;28;20078;-87
2023/09/18 06:58:52;;;;;;;8.55;4.78;;;20.20;99.90;;;;;;5062259;28;20071;-86
2023/09/18 07:01:19;;;;;;;7.97;4.50;;;20.20;99.90;;;;;;5061018;28;20615;-89
2023/09/18 07:03:46;;;;;;;6.90;4.32;;;20.20;99.90;;;;;;5061220;28;20056;-88
2023/09/18 07:06:13;;;;;;;10.32;4.22;;;20.20;99.90;;;;;;5063288;28;20103;-89
2023/09/18 07:08:39;;;;;;;7.10;4.50;;;20.20;99.90;;;;;;5075464;28;20672;-88
2023/09/18 07:11:05;;;;;;;9.20;4.38;;;20.20;99.90;;;;;;5060086;28;20016;-88
2023/09/18 07:13:31;;;;;;;8.43;4.35;;;20.20;99.90;;;;;;5067982;28;20053;-86
2023/09/18 07:15:56;;;;;;;8.13;4.10;;;20.10;99.90;;;;;;5062325;28;20154;-87
2023/09/18 07:18:22;;;;;;;6.65;3.95;;;20.20;99.90;;;;;;5060003;28;20373;-88
2023/09/18 07:20:48;;;;;;;6.30;4.13;;;20.30;99.90;;;;;;5061207;28;20024;-88
2023/09/18 07:23:13;;;;;;;9.45;3.88;;;20.30;99.90;;;;;;5060237;28;20036;-87
2023/09/18 07:25:40;;;;;;;5.32;3.88;;;20.30;99.90;;;;;;5067963;28;20020;-90
2023/09/18 07:28:06;;;;;;;4.28;3.42;;;20.30;99.90;;;;;;5066025;28;20089;-89
2023/09/18 07:30:33;;;;;;;9.32;3.63;;;20.30;99.90;;;;;;5064911;28;20029;-86
2023/09/18 07:33:00;;;;;;;5.72;3.55;;;20.30;99.90;;;;;;5073459;28;20036;-88
2023/09/18 07:35:26;;;;;;;7.72;3.50;;;20.40;99.90;;;;;;5062878;28;20672;-86
2023/09/18 07:37:51;;;;;;;8.32;2.95;;;20.40;99.90;;;;;;5061203;28;20024;-88
2023/09/18 07:40:17;;;;;;;5.90;3.10;;;20.40;99.90;;;;;;5063361;28;20700;-89
2023/09/18 07:42:45;;;;;;;7.10;2.83;;;20.40;99.90;;;;;;5066578;28;20035;-88
2023/09/18 07:45:12;;;;;;;5.75;3.30;;;20.40;99.90;;;;;;5059119;28;20506;-88
2023/09/18 07:47:38;;;;;;;7.88;3.10;;;20.40;99.90;;;;;;5059572;28;20032;-85
2023/09/18 07:50:04;;;;;;;7.93;3.42;;;20.50;99.90;;;;;;5062047;28;20570;-89
2023/09/18 07:52:31;;;;;;;5.43;2.88;;;20.50;99.90;;;;;;5062407;28;20089;-88
2023/09/18 07:55:00;;;;;;;6.10;2.83;;;20.40;99.90;;;;;;5064819;28;20047;-89
2023/09/18 07:57:28;;;;;;;4.45;2.80;;;20.40;99.90;;;;;;5060875;28;20032;-89
2023/09/18 07:59:53;;;;;;;;;;;20.40;99.90;;;;;;5060645;28;20074;-87
2023/09/18 08:02:19;;;;;;;7.35;2.67;;;20.40;99.90;;;;;;5060802;28;19916;-90
2023/09/18 08:04:45;;;;;;;5.95;2.67;;;20.40;99.90;;;;;;5062239;28;20074;-90
2023/09/18 08:07:12;;;;;;;5.90;2.70;;;20.20;99.90;;;;;;5064566;28;20484;-88
2023/09/18 08:09:38;;;;;;;9.52;2.70;;;20.30;99.90;;;;;;5062327;28;20036;-88
2023/09/18 08:12:08;;;;;;;4.68;2.70;;;20.40;99.90;;;;;;5062064;28;20769;-90
2023/09/18 08:14:37;;;;;;;6.57;2.63;;;20.40;99.90;;;;;;5063511;28;20020;-86
2023/09/18 08:17:04;;;;;;;5.30;2.65;;;20.40;99.90;;;;;;5061472;28;20480;-89
2023/09/18 08:19:32;;;;;;;4.95;2.90;;;20.40;99.90;;;;;;5060244;28;20024;-87
2023/09/18 08:21:59;;;;;;;5.03;2.40;;;20.60;99.90;;;;;;5060339;28;20510;-88
2023/09/18 08:24:25;;;;;;;6.03;2.30;;;20.60;99.90;;;;;;5059116;28;20039;-87
2023/09/18 08:26:51;;;;;;;4.57;2.33;;;20.60;99.90;;;;;;5077855;28;20033;-88
2023/09/18 08:29:17;;;;;;;6.43;2.45;;;20.60;99.90;;;;;;5059823;28;20044;-87
2023/09/18 08:31:43;;;;;;;5.57;2.17;;;20.70;99.90;;;;;;5060158;28;20156;-89
2023/09/18 08:34:09;;;;;;;4.75;2.40;;;20.70;99.90;;;;;;5059352;28;20222;-86
2023/09/18 08:36:35;;;;;;;5.13;2.42;;;20.80;99.90;;;;;;5061369;28;20106;-87
2023/09/18 08:39:01;;;;;;;7.65;2.30;;;20.90;99.90;;;;;;5061765;28;20491;-86
2023/09/18 08:41:31;;;;;;;5.05;2.05;;;20.90;99.90;;;;;;5059572;28;20250;-89
2023/09/18 08:44:00;;;;;;;6.22;2.25;;;21.10;99.90;;;;;;5061173;28;20526;-87
2023/09/18 08:46:26;;;;;;;6.38;2.70;;;21.10;99.90;;;;;;5076508;28;20036;-86
2023/09/18 08:48:53;;;;;;;5.38;2.33;;;21.10;99.90;;;;;;5057741;28;20397;-87
2023/09/18 08:51:21;;;;;;;5.35;2.22;;;21.10;99.90;;;;;;5061058;28;20032;-88
2023/09/18 08:53:46;;;;;;;9.97;2.23;;;21.00;99.90;;;;;;5060340;28;20055;-87
2023/09/18 08:56:14;;;;;;;4.82;2.10;;;21.00;99.90;;;;;;5061067;28;20174;-89
2023/09/18 08:58:42;;;;;;;;;;;21.00;99.90;;;;;;5059565;28;20684;-90
2023/09/18 09:01:09;;;;;;;3.80;1.90;;;21.00;99.90;;;;;;5060106;28;19960;-90
2023/09/18 09:03:42;;;;;;;3.28;1.80;;;21.00;99.90;;;;;;5060205;28;20032;-87
2023/09/18 09:06:09;;;;;;;5.45;1.83;;;21.00;99.90;;;;;;5076263;28;20036;-89
2023/09/18 09:08:36;;;;;;;5.43;2.00;;;21.10;99.90;;;;;;5060045;28;20093;-89
2023/09/18 09:11:02;;;;;;;5.80;2.10;;;21.10;99.90;;;;;;5057778;28;20063;-89
2023/09/18 09:13:28;;;;;;;2.72;1.70;;;21.20;99.90;;;;;;5058072;28;20078;-89
2023/09/18 09:15:56;;;;;;;4.63;1.88;;;21.00;99.90;;;;;;5060054;28;20158;-91
2023/09/18 09:18:23;;;;;;;3.40;1.80;;;21.10;99.90;;;;;;5075623;28;20065;-88
2023/09/18 09:20:57;;;;;;;5.22;1.92;;;21.10;99.90;;;;;;5058895;28;20031;-89
2023/09/18 09:23:24;;;;;;;5.95;2.22;;;21.30;99.90;;;;;;5060189;28;20032;-89
2023/09/18 09:25:50;;;;;;;3.42;1.90;;;21.20;99.90;;;;;;5058981;28;20024;-90
2023/09/18 09:28:16;;;;;;;6.00;1.98;;;21.20;99.90;;;;;;5060362;28;20037;-87
2023/09/18 09:30:43;;;;;;;4.40;2.20;;;21.20;99.90;;;;;;5058169;28;20028;-89
2023/09/18 09:33:12;;;;;;;8.38;2.10;;;21.30;99.90;;;;;;5072114;28;20060;-88
2023/09/18 09:35:39;;;;;;;5.57;2.42;;;21.30;99.90;;;;;;5059166;28;20037;-89
2023/09/18 09:38:09;;;;;;;4.85;2.33;;;21.30;99.90;;;;;;5059470;28;20029;-89
2023/09/18 09:40:35;;;;;;;5.22;1.90;;;21.40;99.90;;;;;;5060439;28;20079;-88
2023/09/18 09:43:02;;;;;;;6.40;2.20;;;21.40;99.90;;;;;;5067436;28;20057;-89
2023/09/18 09:45:29;;;;;;;3.85;2.00;;;21.50;99.90;;;;;;5057027;28;20131;-89
2023/09/18 09:47:56;;;;;;;6.15;2.03;;;21.50;99.90;;;;;;5064517;28;20047;-86
2023/09/18 09:50:25;;;;;;;4.82;2.22;;;21.60;99.90;;;;;;5051328;28;20028;-87
2023/09/18 09:52:54;;;;;;;5.75;2.15;;;21.60;99.90;;;;;;5049534;28;20032;-89
2023/09/18 09:55:24;;;;;;;5.80;2.10;;;21.60;99.90;;;;;;5050940;28;20502;-90
2023/09/18 09:57:57;;;;;;;6.90;2.20;;;21.70;99.90;;;;;;5050052;28;20029;-91
2023/09/18 10:00:42;;;;;;;11.65;3.53;;;21.70;99.90;;;;;;5062793;28;20051;-87
2023/09/18 10:03:10;;;;;;;6.60;2.20;;;21.70;99.90;;;;;;5054172;28;20085;-90
2023/09/18 10:05:42;;;;;;;22.75;3.20;;;21.70;99.90;;;;;;5050067;28;20204;-89
2023/09/18 10:08:10;;;;;;;7.72;2.30;;;21.40;99.90;;;;;;5051243;28;20579;-88
2023/09/18 10:10:37;;;;;;;;;;;21.10;99.90;;;;;;5050754;28;20052;-88
2023/09/18 10:13:32;;;;;;;2.90;1.92;;;20.80;99.90;;;;;;5049877;28;20571;-90
2023/09/18 10:16:04;;;;;;;5.07;1.92;;;20.60;99.90;;;;;;5049624;28;20035;-88
2023/09/18 10:19:08;;;;;;;5.95;1.77;;;20.50;99.90;;;;;;5048083;28;20040;-88
2023/09/18 10:21:55;;;;;;;6.40;2.55;;;20.50;99.90;;;;;;5065143;28;20024;-87
2023/09/18 10:24:25;;;;;;;5.88;2.28;;;20.40;99.90;;;;;;5055318;28;20177;-87
2023/09/18 10:26:58;;;;;;;5.35;2.05;;;20.30;99.90;;;;;;5054663;28;20024;-89
2023/09/18 10:29:25;;;;;;;4.45;2.25;;;20.40;99.90;;;;;;5050472;28;21296;-87
2023/09/18 10:31:53;;;;;;;5.85;2.30;;;20.50;99.90;;;;;;5051573;28;20491;-88
2023/09/18 10:34:19;;;;;;;4.35;2.20;;;20.60;99.90;;;;;;5052416;28;20036;-87
2023/09/18 10:36:48;;;;;;;8.32;1.92;;;20.70;99.90;;;;;;5050523;28;20036;-87
2023/09/18 10:39:19;;;;;;;5.97;2.70;;;20.80;99.90;;;;;;5066309;28;20024;-88
2023/09/18 10:41:47;;;;;;;3.13;2.00;;;20.80;99.90;;;;;;5051359;28;20084;-87
2023/09/18 10:44:14;;;;;;;4.05;2.10;;;20.90;99.90;;;;;;5048955;28;20128;-89
2023/09/18 10:46:40;;;;;;;7.07;2.40;;;21.00;99.90;;;;;;5061338;28;20044;-88
2023/09/18 10:49:05;;;;;;;4.13;1.90;;;21.10;99.90;;;;;;5050176;28;20228;-88
2023/09/18 10:51:33;;;;;;;6.95;2.33;;;21.10;99.90;;;;;;5048594;28;20184;-88
2023/09/18 10:54:00;;;;;;;5.25;2.13;;;21.10;99.90;;;;;;5050159;28;20633;-88
2023/09/18 10:56:26;;;;;;;4.22;2.00;;;21.20;99.90;;;;;;5050488;28;20094;-88
2023/09/18 10:59:03;;;;;;;4.65;2.15;;;21.20;99.90;;;;;;5055908;28;20407;-89
2023/09/18 11:01:32;;;;;;;4.63;2.15;;;21.30;99.90;;;;;;5049451;28;20035;-89
2023/09/18 11:04:03;;;;;;;6.63;2.00;;;21.20;99.90;;;;;;5048821;28;21252;-89
2023/09/18 11:06:29;;;;;;;6.43;2.00;;;21.30;99.90;;;;;;5048380;28;20028;-89
2023/09/18 11:09:04;;;;;;;3.40;2.00;;;21.40;99.90;;;;;;5050957;28;20040;-87
2023/09/18 11:11:32;;;;;;;7.40;1.95;;;21.40;99.90;;;;;;5048807;28;20043;-87
2023/09/18 11:13:59;;;;;;;3.50;1.80;;;21.40;99.90;;;;;;5052338;28;20028;-88
2023/09/18 11:16:28;;;;;;;2.33;1.90;;;21.50;99.90;;;;;;5055316;28;20028;-87
2023/09/18 11:18:53;;;;;;;8.23;2.08;;;21.40;99.90;;;;;;5058582;28;20555;-88
2023/09/18 11:21:27;;;;;;;3.65;1.60;;;21.40;99.90;;;;;;5056370;28;20043;-88
2023/09/18 11:24:22;;;;;;;5.10;1.70;;;21.50;99.90;;;;;;5054820;28;22117;-88
2023/09/18 11:26:51;;;;;;;2.13;1.48;;;21.50;99.90;;;;;;5055417;28;20020;-88
2023/09/18 11:29:22;;;;;;;6.55;1.63;;;21.50;99.90;;;;;;5052016;28;20048;-89
2023/09/18 11:31:50;;;;;;;3.42;1.75;;;21.60;99.90;;;;;;5053437;28;20052;-88
2023/09/18 11:34:20;;;;;;;3.15;1.63;;;21.60;99.90;;;;;;5053464;28;20071;-89
2023/09/18 11:36:45;;;;;;;3.95;1.90;;;21.70;99.90;;;;;;5058167;28;20623;-87
2023/09/18 11:39:12;;;;;;;2.58;1.50;;;21.60;99.90;;;;;;5053874;28;20063;-88
2023/09/18 11:41:39;;;;;;;4.90;1.52;;;21.60;99.90;;;;;;5053723;28;20032;-86
2023/09/18 11:44:11;;;;;;;2.10;1.65;;;21.50;99.90;;;;;;5053202;28;20028;-88
2023/09/18 11:46:39;;;;;;;5.65;1.65;;;21.60;99.90;;;;;;5053229;28;20077;-87
2023/09/18 11:49:10;;;;;;;5.18;1.40;;;21.60;99.90;;;;;;5051403;28;20512;-88
2023/09/18 11:51:36;;;;;;;2.25;1.50;;;21.60;99.90;;;;;;5050687;28;20069;-86
2023/09/18 11:54:05;;;;;;;3.25;1.90;;;21.60;99.90;;;;;;5051645;28;20043;-87
2023/09/18 11:56:32;;;;;;;2.95;1.60;;;21.70;99.90;;;;;;5054486;28;20117;-88
2023/09/18 11:58:59;;;;;;;3.92;1.60;;;21.80;99.90;;;;;;5062254;28;20830;-86
2023/09/18 12:01:26;;;;;;;3.05;1.67;;;21.80;99.90;;;;;;5052509;28;20028;-87
2023/09/18 12:04:00;;;;;;;4.83;1.60;;;21.90;99.90;;;;;;5070744;28;20044;-87
2023/09/18 12:06:26;;;;;;;4.10;1.63;;;22.00;99.90;;;;;;5052036;28;20039;-86
2023/09/18 12:08:53;;;;;;;6.40;1.80;;;22.00;99.90;;;;;;5067214;28;20044;-88
2023/09/18 12:11:19;;;;;;;2.42;1.70;;;22.00;99.90;;;;;;5052741;28;20032;-87
2023/09/18 12:13:46;;;;;;;3.65;1.50;;;22.00;99.90;;;;;;5052247;28;20043;-85
2023/09/18 12:16:12;;;;;;;3.70;1.40;;;21.90;99.90;;;;;;5054407;28;20107;-88
2023/09/18 12:18:47;;;;;;;2.97;1.90;;;21.80;99.90;;;;;;5053905;28;20980;-87
2023/09/18 12:21:14;;;;;;;3.38;1.70;;;21.70;99.90;;;;;;5052541;28;20724;-87
2023/09/18 12:23:42;;;;;;;3.17;1.52;;;21.60;99.90;;;;;;5052720;28;20906;-87
2023/09/18 12:26:10;;;;;;;2.85;1.50;;;21.60;99.90;;;;;;5050919;28;20066;-87
2023/09/18 12:28:36;;;;;;;;;;;21.70;99.90;;;;;;5052689;28;21486;-88
2023/09/18 12:31:05;;;;;;;4.30;1.83;;;21.60;99.90;;;;;;5055597;28;19950;-90
2023/09/18 12:33:35;;;;;;;1.75;1.48;;;21.70;99.90;;;;;;5059900;28;20051;-88
2023/09/18 12:36:01;;;;;;;2.58;1.60;;;21.70;99.90;;;;;;5049507;28;20076;-89
2023/09/18 12:38:28;;;;;;;10.35;3.65;;;21.50;99.90;;;;;;5052528;28;20043;-86
2023/09/18 12:40:54;;;;;;;3.55;1.70;;;21.60;99.90;;;;;;5053762;28;20032;-88
2023/09/18 12:43:22;;;;;;;4.43;2.22;;;21.60;99.90;;;;;;5051301;28;21185;-86
2023/09/18 12:45:49;;;;;;;3.47;1.58;;;21.70;99.90;;;;;;5051377;28;20170;-87